Tri-Cities Airport Airport (TRI)

 

Airport Diagram
Current Weather/Forecast (VFR Conditions)
METAR KTRI 050053Z 00000KT 10SM FEW040 SCT110 SCT250 22/19 A3003 RMK AO2 SLP144 T02220194 $
TAF KTRI 042320Z 0500/0524 00000KT P6SM SCT050 FM050800 00000KT 4SM BR SCT006 SCT045 FM051000 00000KT 1SM BR BKN006 TEMPO 0510/0512 1/2SM FG BKN004 FM051230 00000KT 3SM BR SCT006 BKN015 FM051330 VRB04KT P6SM SCT045 PROB30 0520/0524 4SM TSRA BR BKN050CB

All Charts
General
Chart Name Download
AIRPORT DIAGRAM
TAKEOFF MINIMUMS
ALTERNATE MINIMUMS

Departures
Chart Name Download
KINGS TWO
KINGS TWO, CONT.1

Approaches
Chart Name Download
ILS OR LOC RWY 05
ILS OR LOC RWY 23
ILS RWY 23 (SA CAT I)
ILS RWY 23 (CAT II)
RNAV (GPS) RWY 05
RNAV (GPS) RWY 09
RNAV (GPS) RWY 23
RNAV (GPS) RWY 27


Inbound Traffic (Arrivals)

No inbound traffic.


Outbound Traffic (Departures)

No outbound traffic.